sensor_id;sensor_type;location;lat;lon;timestamp;P1;durP1;ratioP1;P2;durP2;ratioP2
56567;SDS011;42456;49.956;20.004;2023-03-24T00:00:24;10.50;;;4.80;;
56567;SDS011;42456;49.956;20.004;2023-03-24T00:02:51;10.30;;;5.00;;
56567;SDS011;42456;49.956;20.004;2023-03-24T00:05:20;10.40;;;5.30;;
56567;SDS011;42456;49.956;20.004;2023-03-24T00:07:49;9.90;;;5.10;;
56567;SDS011;42456;49.956;20.004;2023-03-24T00:10:20;9.30;;;4.60;;
56567;SDS011;42456;49.956;20.004;2023-03-24T00:12:49;10.90;;;5.20;;
56567;SDS011;42456;49.956;20.004;2023-03-24T00:15:18;11.80;;;5.20;;
56567;SDS011;42456;49.956;20.004;2023-03-24T00:20:17;10.90;;;4.80;;
56567;SDS011;42456;49.956;20.004;2023-03-24T00:22:46;8.70;;;4.80;;
56567;SDS011;42456;49.956;20.004;2023-03-24T00:25:17;9.40;;;5.20;;
56567;SDS011;42456;49.956;20.004;2023-03-24T00:27:46;10.20;;;4.90;;
56567;SDS011;42456;49.956;20.004;2023-03-24T00:30:17;10.20;;;4.70;;
56567;SDS011;42456;49.956;20.004;2023-03-24T00:32:44;12.20;;;5.10;;
56567;SDS011;42456;49.956;20.004;2023-03-24T00:35:12;10.50;;;5.00;;
56567;SDS011;42456;49.956;20.004;2023-03-24T00:37:42;9.00;;;4.90;;
56567;SDS011;42456;49.956;20.004;2023-03-24T00:40:13;12.60;;;6.00;;
56567;SDS011;42456;49.956;20.004;2023-03-24T00:42:43;10.00;;;5.40;;
56567;SDS011;42456;49.956;20.004;2023-03-24T00:45:13;10.30;;;4.90;;
56567;SDS011;42456;49.956;20.004;2023-03-24T00:47:43;11.50;;;5.40;;
56567;SDS011;42456;49.956;20.004;2023-03-24T00:50:12;11.40;;;5.20;;
56567;SDS011;42456;49.956;20.004;2023-03-24T00:52:41;10.20;;;4.70;;
56567;SDS011;42456;49.956;20.004;2023-03-24T00:55:13;9.70;;;4.70;;
56567;SDS011;42456;49.956;20.004;2023-03-24T00:57:43;9.20;;;5.10;;
56567;SDS011;42456;49.956;20.004;2023-03-24T01:00:20;9.60;;;4.70;;
56567;SDS011;42456;49.956;20.004;2023-03-24T01:02:51;9.50;;;4.80;;
56567;SDS011;42456;49.956;20.004;2023-03-24T01:05:20;9.40;;;4.60;;
56567;SDS011;42456;49.956;20.004;2023-03-24T01:07:49;7.80;;;4.90;;
56567;SDS011;42456;49.956;20.004;2023-03-24T01:10:22;10.00;;;4.60;;
56567;SDS011;42456;49.956;20.004;2023-03-24T01:12:53;12.00;;;4.80;;
56567;SDS011;42456;49.956;20.004;2023-03-24T01:15:23;12.80;;;4.80;;
56567;SDS011;42456;49.956;20.004;2023-03-24T01:17:53;9.60;;;4.70;;
56567;SDS011;42456;49.956;20.004;2023-03-24T01:20:21;8.00;;;4.90;;
56567;SDS011;42456;49.956;20.004;2023-03-24T01:22:49;9.00;;;4.80;;
56567;SDS011;42456;49.956;20.004;2023-03-24T01:25:19;11.00;;;4.90;;
56567;SDS011;42456;49.956;20.004;2023-03-24T01:27:48;8.00;;;4.30;;
56567;SDS011;42456;49.956;20.004;2023-03-24T01:30:18;9.20;;;4.30;;
56567;SDS011;42456;49.956;20.004;2023-03-24T01:32:47;8.50;;;4.60;;
56567;SDS011;42456;49.956;20.004;2023-03-24T01:35:14;8.20;;;4.30;;
56567;SDS011;42456;49.956;20.004;2023-03-24T01:37:41;7.40;;;4.30;;
56567;SDS011;42456;49.956;20.004;2023-03-24T01:40:10;10.50;;;4.70;;
56567;SDS011;42456;49.956;20.004;2023-03-24T01:42:42;8.40;;;4.50;;
56567;SDS011;42456;49.956;20.004;2023-03-24T01:48:08;9.60;;;4.70;;
56567;SDS011;42456;49.956;20.004;2023-03-24T01:50:37;7.90;;;4.40;;
56567;SDS011;42456;49.956;20.004;2023-03-24T01:53:06;8.70;;;4.40;;
56567;SDS011;42456;49.956;20.004;2023-03-24T01:55:34;7.40;;;4.60;;
56567;SDS011;42456;49.956;20.004;2023-03-24T01:58:01;8.70;;;4.30;;
56567;SDS011;42456;49.956;20.004;2023-03-24T02:00:28;10.00;;;4.80;;
56567;SDS011;42456;49.956;20.004;2023-03-24T02:02:57;7.30;;;4.60;;
56567;SDS011;42456;49.956;20.004;2023-03-24T02:05:33;7.50;;;4.30;;
56567;SDS011;42456;49.956;20.004;2023-03-24T02:10:54;9.50;;;4.70;;
56567;SDS011;42456;49.956;20.004;2023-03-24T02:13:22;7.80;;;4.30;;
56567;SDS011;42456;49.956;20.004;2023-03-24T02:24:41;8.00;;;4.40;;
56567;SDS011;42456;49.956;20.004;2023-03-24T02:48:36;8.00;;;4.40;;
56567;SDS011;42456;49.956;20.004;2023-03-24T02:51:13;9.50;;;4.50;;
56567;SDS011;42456;49.956;20.004;2023-03-24T02:53:50;7.70;;;4.60;;
56567;SDS011;42456;49.956;20.004;2023-03-24T02:57:01;8.40;;;4.90;;
56567;SDS011;42456;49.956;20.004;2023-03-24T03:02:24;7.10;;;4.20;;
56567;SDS011;42456;49.956;20.004;2023-03-24T03:04:57;7.80;;;4.30;;
56567;SDS011;42456;49.956;20.004;2023-03-24T03:07:29;8.40;;;4.30;;
56567;SDS011;42456;49.956;20.004;2023-03-24T03:10:07;8.30;;;4.20;;
56567;SDS011;42456;49.956;20.004;2023-03-24T03:12:41;7.00;;;4.30;;
56567;SDS011;42456;49.956;20.004;2023-03-24T03:15:15;7.80;;;4.40;;
56567;SDS011;42456;49.956;20.004;2023-03-24T03:17:59;8.20;;;4.10;;
56567;SDS011;42456;49.956;20.004;2023-03-24T03:20:44;7.10;;;4.00;;
56567;SDS011;42456;49.956;20.004;2023-03-24T03:23:40;8.80;;;4.40;;
56567;SDS011;42456;49.956;20.004;2023-03-24T03:26:27;7.30;;;4.50;;
56567;SDS011;42456;49.956;20.004;2023-03-24T03:28:59;7.20;;;4.40;;
56567;SDS011;42456;49.956;20.004;2023-03-24T03:31:35;9.20;;;4.40;;
56567;SDS011;42456;49.956;20.004;2023-03-24T03:37:03;6.90;;;4.00;;
56567;SDS011;42456;49.956;20.004;2023-03-24T03:39:34;6.80;;;4.00;;
56567;SDS011;42456;49.956;20.004;2023-03-24T03:42:05;7.90;;;4.10;;
56567;SDS011;42456;49.956;20.004;2023-03-24T03:44:33;6.00;;;4.10;;
56567;SDS011;42456;49.956;20.004;2023-03-24T03:47:00;5.30;;;3.90;;
56567;SDS011;42456;49.956;20.004;2023-03-24T03:49:27;8.80;;;4.10;;
56567;SDS011;42456;49.956;20.004;2023-03-24T03:51:54;7.00;;;4.00;;
56567;SDS011;42456;49.956;20.004;2023-03-24T03:54:22;7.10;;;4.40;;
56567;SDS011;42456;49.956;20.004;2023-03-24T03:56:54;6.60;;;4.20;;
56567;SDS011;42456;49.956;20.004;2023-03-24T03:59:29;6.50;;;4.10;;
56567;SDS011;42456;49.956;20.004;2023-03-24T04:02:05;6.80;;;4.40;;
56567;SDS011;42456;49.956;20.004;2023-03-24T04:07:53;6.10;;;4.10;;
56567;SDS011;42456;49.956;20.004;2023-03-24T04:32:50;7.60;;;4.60;;
56567;SDS011;42456;49.956;20.004;2023-03-24T04:35:24;8.50;;;4.80;;
56567;SDS011;42456;49.956;20.004;2023-03-24T04:38:02;7.70;;;4.80;;
56567;SDS011;42456;49.956;20.004;2023-03-24T04:40:34;12.40;;;4.90;;
56567;SDS011;42456;49.956;20.004;2023-03-24T04:43:08;10.20;;;5.30;;
56567;SDS011;42456;49.956;20.004;2023-03-24T04:45:39;9.50;;;5.00;;
56567;SDS011;42456;49.956;20.004;2023-03-24T04:48:07;10.50;;;5.10;;
56567;SDS011;42456;49.956;20.004;2023-03-24T04:50:38;9.70;;;5.10;;
56567;SDS011;42456;49.956;20.004;2023-03-24T04:53:08;7.80;;;5.30;;
56567;SDS011;42456;49.956;20.004;2023-03-24T04:58:09;8.40;;;4.70;;
56567;SDS011;42456;49.956;20.004;2023-03-24T05:00:36;8.30;;;5.00;;
56567;SDS011;42456;49.956;20.004;2023-03-24T05:03:03;7.60;;;4.90;;
56567;SDS011;42456;49.956;20.004;2023-03-24T05:05:30;12.50;;;5.40;;
56567;SDS011;42456;49.956;20.004;2023-03-24T05:07:57;8.60;;;5.40;;
56567;SDS011;42456;49.956;20.004;2023-03-24T05:10:26;9.40;;;5.10;;
56567;SDS011;42456;49.956;20.004;2023-03-24T05:12:52;11.10;;;5.40;;
56567;SDS011;42456;49.956;20.004;2023-03-24T05:15:19;10.00;;;5.60;;
56567;SDS011;42456;49.956;20.004;2023-03-24T05:17:46;10.70;;;6.00;;
56567;SDS011;42456;49.956;20.004;2023-03-24T05:20:13;12.10;;;5.80;;
56567;SDS011;42456;49.956;20.004;2023-03-24T05:22:41;10.40;;;5.90;;
56567;SDS011;42456;49.956;20.004;2023-03-24T05:25:08;10.10;;;5.80;;
56567;SDS011;42456;49.956;20.004;2023-03-24T05:27:35;8.70;;;5.50;;
56567;SDS011;42456;49.956;20.004;2023-03-24T05:30:03;11.90;;;5.50;;
56567;SDS011;42456;49.956;20.004;2023-03-24T05:32:32;8.40;;;5.10;;
56567;SDS011;42456;49.956;20.004;2023-03-24T05:34:59;10.00;;;5.60;;
56567;SDS011;42456;49.956;20.004;2023-03-24T05:37:26;9.30;;;5.80;;
56567;SDS011;42456;49.956;20.004;2023-03-24T05:39:52;10.00;;;5.40;;
56567;SDS011;42456;49.956;20.004;2023-03-24T05:42:21;9.90;;;5.30;;
56567;SDS011;42456;49.956;20.004;2023-03-24T05:44:48;11.20;;;5.40;;
56567;SDS011;42456;49.956;20.004;2023-03-24T05:47:15;8.50;;;4.90;;
56567;SDS011;42456;49.956;20.004;2023-03-24T05:49:45;9.10;;;5.20;;
56567;SDS011;42456;49.956;20.004;2023-03-24T05:52:13;9.00;;;4.70;;
56567;SDS011;42456;49.956;20.004;2023-03-24T05:54:41;9.50;;;5.90;;
56567;SDS011;42456;49.956;20.004;2023-03-24T05:57:12;11.30;;;6.30;;
56567;SDS011;42456;49.956;20.004;2023-03-24T05:59:41;10.30;;;5.90;;
56567;SDS011;42456;49.956;20.004;2023-03-24T06:02:08;9.60;;;5.30;;
56567;SDS011;42456;49.956;20.004;2023-03-24T06:04:35;8.80;;;5.10;;
56567;SDS011;42456;49.956;20.004;2023-03-24T06:07:03;10.00;;;5.10;;
56567;SDS011;42456;49.956;20.004;2023-03-24T06:09:30;9.20;;;5.60;;
56567;SDS011;42456;49.956;20.004;2023-03-24T06:12:08;11.00;;;5.40;;
56567;SDS011;42456;49.956;20.004;2023-03-24T06:14:35;8.70;;;5.10;;
56567;SDS011;42456;49.956;20.004;2023-03-24T06:17:02;9.30;;;5.50;;
56567;SDS011;42456;49.956;20.004;2023-03-24T06:19:29;11.00;;;5.30;;
56567;SDS011;42456;49.956;20.004;2023-03-24T06:21:58;9.90;;;5.30;;
56567;SDS011;42456;49.956;20.004;2023-03-24T06:24:28;8.00;;;4.90;;
56567;SDS011;42456;49.956;20.004;2023-03-24T06:26:55;8.20;;;5.10;;
56567;SDS011;42456;49.956;20.004;2023-03-24T06:29:28;9.20;;;5.10;;
56567;SDS011;42456;49.956;20.004;2023-03-24T06:31:56;7.80;;;5.40;;
56567;SDS011;42456;49.956;20.004;2023-03-24T06:34:23;10.20;;;5.70;;
56567;SDS011;42456;49.956;20.004;2023-03-24T06:36:54;8.60;;;5.40;;
56567;SDS011;42456;49.956;20.004;2023-03-24T06:39:22;8.40;;;5.20;;
56567;SDS011;42456;49.956;20.004;2023-03-24T06:41:49;11.00;;;5.70;;
56567;SDS011;42456;49.956;20.004;2023-03-24T06:44:16;10.50;;;6.00;;
56567;SDS011;42456;49.956;20.004;2023-03-24T06:46:42;9.90;;;5.40;;
56567;SDS011;42456;49.956;20.004;2023-03-24T06:49:11;9.20;;;5.30;;
56567;SDS011;42456;49.956;20.004;2023-03-24T06:51:38;11.70;;;5.80;;
56567;SDS011;42456;49.956;20.004;2023-03-24T06:54:05;8.60;;;5.50;;
56567;SDS011;42456;49.956;20.004;2023-03-24T06:56:32;10.70;;;6.40;;
56567;SDS011;42456;49.956;20.004;2023-03-24T06:59:00;11.50;;;6.20;;
56567;SDS011;42456;49.956;20.004;2023-03-24T07:01:27;11.00;;;6.20;;
56567;SDS011;42456;49.956;20.004;2023-03-24T07:03:55;12.30;;;6.20;;
56567;SDS011;42456;49.956;20.004;2023-03-24T07:06:22;13.70;;;7.10;;
56567;SDS011;42456;49.956;20.004;2023-03-24T07:08:49;11.70;;;6.50;;
56567;SDS011;42456;49.956;20.004;2023-03-24T07:11:16;13.60;;;6.50;;
56567;SDS011;42456;49.956;20.004;2023-03-24T07:13:44;11.60;;;6.60;;
56567;SDS011;42456;49.956;20.004;2023-03-24T07:16:11;13.90;;;7.10;;
56567;SDS011;42456;49.956;20.004;2023-03-24T07:18:37;11.20;;;6.70;;
56567;SDS011;42456;49.956;20.004;2023-03-24T07:21:04;12.00;;;6.60;;
56567;SDS011;42456;49.956;20.004;2023-03-24T07:23:32;11.60;;;6.10;;
56567;SDS011;42456;49.956;20.004;2023-03-24T07:25:59;11.70;;;6.60;;
56567;SDS011;42456;49.956;20.004;2023-03-24T07:28:26;11.80;;;6.20;;
56567;SDS011;42456;49.956;20.004;2023-03-24T07:30:53;10.10;;;6.50;;
56567;SDS011;42456;49.956;20.004;2023-03-24T07:33:21;11.30;;;6.10;;
56567;SDS011;42456;49.956;20.004;2023-03-24T07:35:53;11.10;;;6.50;;
56567;SDS011;42456;49.956;20.004;2023-03-24T07:38:23;10.20;;;5.90;;
56567;SDS011;42456;49.956;20.004;2023-03-24T07:40:51;13.60;;;6.40;;
56567;SDS011;42456;49.956;20.004;2023-03-24T07:43:18;11.90;;;5.70;;
56567;SDS011;42456;49.956;20.004;2023-03-24T07:45:45;9.70;;;5.50;;
56567;SDS011;42456;49.956;20.004;2023-03-24T07:48:13;11.20;;;6.10;;
56567;SDS011;42456;49.956;20.004;2023-03-24T07:50:40;9.90;;;5.80;;
56567;SDS011;42456;49.956;20.004;2023-03-24T07:53:08;9.60;;;5.80;;
56567;SDS011;42456;49.956;20.004;2023-03-24T07:58:04;9.20;;;5.40;;
56567;SDS011;42456;49.956;20.004;2023-03-24T08:00:32;11.80;;;5.50;;
56567;SDS011;42456;49.956;20.004;2023-03-24T08:02:59;11.70;;;5.70;;
56567;SDS011;42456;49.956;20.004;2023-03-24T08:05:27;10.00;;;5.60;;
56567;SDS011;42456;49.956;20.004;2023-03-24T08:07:56;9.50;;;5.30;;
56567;SDS011;42456;49.956;20.004;2023-03-24T08:10:25;10.50;;;5.40;;
56567;SDS011;42456;49.956;20.004;2023-03-24T08:12:55;8.70;;;5.10;;
56567;SDS011;42456;49.956;20.004;2023-03-24T08:15:24;9.60;;;5.20;;
56567;SDS011;42456;49.956;20.004;2023-03-24T08:17:52;10.20;;;5.40;;
56567;SDS011;42456;49.956;20.004;2023-03-24T08:20:22;10.80;;;5.30;;
56567;SDS011;42456;49.956;20.004;2023-03-24T08:22:52;12.00;;;6.00;;
56567;SDS011;42456;49.956;20.004;2023-03-24T08:25:21;8.00;;;4.90;;
56567;SDS011;42456;49.956;20.004;2023-03-24T08:27:50;10.30;;;4.80;;
56567;SDS011;42456;49.956;20.004;2023-03-24T08:30:19;11.00;;;5.10;;
56567;SDS011;42456;49.956;20.004;2023-03-24T08:32:51;9.80;;;5.20;;
56567;SDS011;42456;49.956;20.004;2023-03-24T08:35:21;9.60;;;5.10;;
56567;SDS011;42456;49.956;20.004;2023-03-24T08:37:50;8.50;;;5.30;;
56567;SDS011;42456;49.956;20.004;2023-03-24T08:40:18;9.50;;;5.10;;
56567;SDS011;42456;49.956;20.004;2023-03-24T08:42:50;10.40;;;5.00;;
56567;SDS011;42456;49.956;20.004;2023-03-24T08:45:23;7.10;;;4.80;;
56567;SDS011;42456;49.956;20.004;2023-03-24T08:47:53;9.00;;;5.00;;
56567;SDS011;42456;49.956;20.004;2023-03-24T08:50:21;6.90;;;4.70;;
56567;SDS011;42456;49.956;20.004;2023-03-24T08:52:54;9.50;;;5.10;;
56567;SDS011;42456;49.956;20.004;2023-03-24T08:55:22;8.50;;;5.00;;
56567;SDS011;42456;49.956;20.004;2023-03-24T08:57:50;7.20;;;4.70;;
56567;SDS011;42456;49.956;20.004;2023-03-24T09:00:18;9.10;;;4.80;;
56567;SDS011;42456;49.956;20.004;2023-03-24T09:02:50;8.80;;;5.10;;
56567;SDS011;42456;49.956;20.004;2023-03-24T09:05:19;8.00;;;5.10;;
56567;SDS011;42456;49.956;20.004;2023-03-24T09:08:06;9.40;;;4.90;;
56567;SDS011;42456;49.956;20.004;2023-03-24T09:10:33;7.70;;;4.80;;
56567;SDS011;42456;49.956;20.004;2023-03-24T09:13:01;7.60;;;4.90;;
56567;SDS011;42456;49.956;20.004;2023-03-24T09:15:30;8.80;;;4.90;;
56567;SDS011;42456;49.956;20.004;2023-03-24T09:17:57;11.20;;;4.90;;
56567;SDS011;42456;49.956;20.004;2023-03-24T09:20:24;8.80;;;5.40;;
56567;SDS011;42456;49.956;20.004;2023-03-24T09:22:51;7.40;;;4.70;;
56567;SDS011;42456;49.956;20.004;2023-03-24T09:25:18;6.70;;;4.80;;
56567;SDS011;42456;49.956;20.004;2023-03-24T09:27:46;8.70;;;4.90;;
56567;SDS011;42456;49.956;20.004;2023-03-24T09:30:14;7.20;;;4.80;;
56567;SDS011;42456;49.956;20.004;2023-03-24T09:32:43;8.60;;;4.90;;
56567;SDS011;42456;49.956;20.004;2023-03-24T09:35:11;9.20;;;5.10;;
56567;SDS011;42456;49.956;20.004;2023-03-24T09:37:39;10.30;;;5.50;;
56567;SDS011;42456;49.956;20.004;2023-03-24T09:40:16;8.10;;;4.90;;
56567;SDS011;42456;49.956;20.004;2023-03-24T09:42:48;8.00;;;4.70;;
56567;SDS011;42456;49.956;20.004;2023-03-24T09:45:21;7.20;;;4.90;;
56567;SDS011;42456;49.956;20.004;2023-03-24T09:47:52;8.10;;;4.70;;
56567;SDS011;42456;49.956;20.004;2023-03-24T09:50:24;9.50;;;4.30;;
56567;SDS011;42456;49.956;20.004;2023-03-24T09:52:57;7.80;;;4.30;;
56567;SDS011;42456;49.956;20.004;2023-03-24T09:55:29;8.80;;;4.40;;
56567;SDS011;42456;49.956;20.004;2023-03-24T09:57:58;7.30;;;4.80;;
56567;SDS011;42456;49.956;20.004;2023-03-24T10:00:30;6.80;;;4.50;;
56567;SDS011;42456;49.956;20.004;2023-03-24T10:02:59;7.80;;;4.30;;
56567;SDS011;42456;49.956;20.004;2023-03-24T10:05:40;8.20;;;4.50;;
56567;SDS011;42456;49.956;20.004;2023-03-24T10:08:20;7.20;;;4.30;;
56567;SDS011;42456;49.956;20.004;2023-03-24T10:11:06;6.00;;;3.90;;
56567;SDS011;42456;49.956;20.004;2023-03-24T10:22:03;7.20;;;4.00;;
56567;SDS011;42456;49.956;20.004;2023-03-24T10:24:57;5.70;;;3.90;;
56567;SDS011;42456;49.956;20.004;2023-03-24T10:27:33;7.10;;;3.80;;
56567;SDS011;42456;49.956;20.004;2023-03-24T10:30:29;5.80;;;3.80;;
56567;SDS011;42456;49.956;20.004;2023-03-24T10:32:57;7.10;;;4.30;;
56567;SDS011;42456;49.956;20.004;2023-03-24T10:35:26;7.20;;;4.30;;
56567;SDS011;42456;49.956;20.004;2023-03-24T10:37:59;8.00;;;3.90;;
56567;SDS011;42456;49.956;20.004;2023-03-24T10:40:30;7.30;;;3.70;;
56567;SDS011;42456;49.956;20.004;2023-03-24T10:42:58;8.80;;;4.30;;
56567;SDS011;42456;49.956;20.004;2023-03-24T10:45:35;8.20;;;4.60;;
56567;SDS011;42456;49.956;20.004;2023-03-24T10:48:05;6.50;;;4.00;;
56567;SDS011;42456;49.956;20.004;2023-03-24T10:50:35;5.70;;;3.90;;
56567;SDS011;42456;49.956;20.004;2023-03-24T10:53:18;6.80;;;4.00;;
56567;SDS011;42456;49.956;20.004;2023-03-24T10:55:46;6.40;;;3.90;;
56567;SDS011;42456;49.956;20.004;2023-03-24T10:58:36;9.10;;;4.10;;
56567;SDS011;42456;49.956;20.004;2023-03-24T11:01:05;5.30;;;3.70;;
56567;SDS011;42456;49.956;20.004;2023-03-24T11:03:59;5.60;;;3.60;;
56567;SDS011;42456;49.956;20.004;2023-03-24T11:06:30;4.20;;;3.50;;
56567;SDS011;42456;49.956;20.004;2023-03-24T11:09:17;6.70;;;3.90;;
56567;SDS011;42456;49.956;20.004;2023-03-24T11:11:46;4.80;;;3.30;;
56567;SDS011;42456;49.956;20.004;2023-03-24T11:14:31;6.30;;;3.50;;
56567;SDS011;42456;49.956;20.004;2023-03-24T11:19:50;5.60;;;3.70;;
56567;SDS011;42456;49.956;20.004;2023-03-24T11:22:21;4.30;;;3.40;;
56567;SDS011;42456;49.956;20.004;2023-03-24T11:24:53;8.00;;;3.90;;
56567;SDS011;42456;49.956;20.004;2023-03-24T11:27:22;6.40;;;3.10;;
56567;SDS011;42456;49.956;20.004;2023-03-24T11:29:50;8.20;;;3.90;;
56567;SDS011;42456;49.956;20.004;2023-03-24T11:32:23;5.30;;;2.90;;
56567;SDS011;42456;49.956;20.004;2023-03-24T11:34:58;4.80;;;2.60;;
56567;SDS011;42456;49.956;20.004;2023-03-24T11:37:36;5.30;;;3.30;;
56567;SDS011;42456;49.956;20.004;2023-03-24T11:42:59;5.20;;;2.70;;
56567;SDS011;42456;49.956;20.004;2023-03-24T11:48:19;2.80;;;2.50;;
56567;SDS011;42456;49.956;20.004;2023-03-24T11:50:54;4.60;;;2.70;;
56567;SDS011;42456;49.956;20.004;2023-03-24T11:53:29;5.50;;;3.50;;
56567;SDS011;42456;49.956;20.004;2023-03-24T11:56:02;7.30;;;3.40;;
56567;SDS011;42456;49.956;20.004;2023-03-24T11:58:39;5.60;;;3.30;;
56567;SDS011;42456;49.956;20.004;2023-03-24T12:26:07;6.20;;;2.90;;
56567;SDS011;42456;49.956;20.004;2023-03-24T12:40:24;4.20;;;2.90;;
56567;SDS011;42456;49.956;20.004;2023-03-24T12:56:40;4.80;;;3.20;;
56567;SDS011;42456;49.956;20.004;2023-03-24T12:59:19;6.80;;;3.10;;
56567;SDS011;42456;49.956;20.004;2023-03-24T13:01:51;4.90;;;3.00;;
56567;SDS011;42456;49.956;20.004;2023-03-24T13:04:31;6.70;;;3.70;;
56567;SDS011;42456;49.956;20.004;2023-03-24T13:12:22;4.70;;;2.80;;
56567;SDS011;42456;49.956;20.004;2023-03-24T13:17:37;5.10;;;3.10;;
56567;SDS011;42456;49.956;20.004;2023-03-24T13:20:11;4.20;;;2.80;;
56567;SDS011;42456;49.956;20.004;2023-03-24T13:22:40;5.50;;;3.00;;
56567;SDS011;42456;49.956;20.004;2023-03-24T13:25:11;4.10;;;2.80;;
56567;SDS011;42456;49.956;20.004;2023-03-24T13:27:59;4.30;;;2.80;;
56567;SDS011;42456;49.956;20.004;2023-03-24T13:30:35;5.10;;;2.50;;
56567;SDS011;42456;49.956;20.004;2023-03-24T13:33:09;3.60;;;2.70;;
56567;SDS011;42456;49.956;20.004;2023-03-24T13:38:42;4.50;;;3.00;;
56567;SDS011;42456;49.956;20.004;2023-03-24T13:41:18;7.60;;;3.00;;
56567;SDS011;42456;49.956;20.004;2023-03-24T13:43:50;4.90;;;2.80;;
56567;SDS011;42456;49.956;20.004;2023-03-24T13:46:24;4.10;;;2.60;;
56567;SDS011;42456;49.956;20.004;2023-03-24T13:48:55;3.80;;;3.00;;
56567;SDS011;42456;49.956;20.004;2023-03-24T13:51:30;4.00;;;2.80;;
56567;SDS011;42456;49.956;20.004;2023-03-24T13:54:21;4.90;;;2.70;;
56567;SDS011;42456;49.956;20.004;2023-03-24T14:20:57;5.10;;;2.90;;
56567;SDS011;42456;49.956;20.004;2023-03-24T14:26:27;5.00;;;2.90;;
56567;SDS011;42456;49.956;20.004;2023-03-24T14:28:59;6.80;;;3.10;;
56567;SDS011;42456;49.956;20.004;2023-03-24T14:31:33;5.30;;;3.40;;
56567;SDS011;42456;49.956;20.004;2023-03-24T14:34:05;5.50;;;2.80;;
56567;SDS011;42456;49.956;20.004;2023-03-24T14:36:41;3.90;;;3.00;;
56567;SDS011;42456;49.956;20.004;2023-03-24T14:41:57;11.80;;;3.50;;
56567;SDS011;42456;49.956;20.004;2023-03-24T14:47:15;4.80;;;3.20;;
56567;SDS011;42456;49.956;20.004;2023-03-24T14:49:47;5.90;;;3.20;;
56567;SDS011;42456;49.956;20.004;2023-03-24T14:54:51;6.10;;;3.20;;
56567;SDS011;42456;49.956;20.004;2023-03-24T14:57:24;5.50;;;3.30;;
56567;SDS011;42456;49.956;20.004;2023-03-24T15:00:00;5.40;;;3.10;;
56567;SDS011;42456;49.956;20.004;2023-03-24T15:02:55;8.20;;;3.50;;
56567;SDS011;42456;49.956;20.004;2023-03-24T15:15:49;6.00;;;3.50;;
56567;SDS011;42456;49.956;20.004;2023-03-24T15:18:16;6.50;;;3.40;;
56567;SDS011;42456;49.956;20.004;2023-03-24T15:20:44;4.90;;;3.50;;
56567;SDS011;42456;49.956;20.004;2023-03-24T15:23:19;4.40;;;3.20;;
56567;SDS011;42456;49.956;20.004;2023-03-24T15:25:51;4.60;;;3.30;;
56567;SDS011;42456;49.956;20.004;2023-03-24T15:28:23;5.00;;;3.20;;
56567;SDS011;42456;49.956;20.004;2023-03-24T15:30:52;4.50;;;3.30;;
56567;SDS011;42456;49.956;20.004;2023-03-24T15:35:53;6.70;;;3.30;;
56567;SDS011;42456;49.956;20.004;2023-03-24T15:38:29;8.60;;;3.40;;
56567;SDS011;42456;49.956;20.004;2023-03-24T15:43:45;7.80;;;3.30;;
56567;SDS011;42456;49.956;20.004;2023-03-24T15:46:21;9.10;;;4.50;;
56567;SDS011;42456;49.956;20.004;2023-03-24T15:48:48;11.10;;;5.30;;
56567;SDS011;42456;49.956;20.004;2023-03-24T15:51:16;14.90;;;8.90;;
56567;SDS011;42456;49.956;20.004;2023-03-24T15:53:44;7.20;;;4.50;;
56567;SDS011;42456;49.956;20.004;2023-03-24T15:58:51;5.80;;;3.40;;
56567;SDS011;42456;49.956;20.004;2023-03-24T16:01:39;6.60;;;3.30;;
56567;SDS011;42456;49.956;20.004;2023-03-24T16:04:14;5.20;;;3.00;;
56567;SDS011;42456;49.956;20.004;2023-03-24T16:06:50;6.30;;;3.30;;
56567;SDS011;42456;49.956;20.004;2023-03-24T16:09:20;7.50;;;3.70;;
56567;SDS011;42456;49.956;20.004;2023-03-24T16:11:53;5.80;;;3.90;;
56567;SDS011;42456;49.956;20.004;2023-03-24T16:14:21;7.20;;;4.10;;
56567;SDS011;42456;49.956;20.004;2023-03-24T16:16:54;9.90;;;4.60;;
56567;SDS011;42456;49.956;20.004;2023-03-24T16:19:23;13.10;;;5.50;;
56567;SDS011;42456;49.956;20.004;2023-03-24T16:21:50;10.20;;;4.80;;
56567;SDS011;42456;49.956;20.004;2023-03-24T16:24:17;13.30;;;5.80;;
56567;SDS011;42456;49.956;20.004;2023-03-24T16:26:44;12.60;;;5.60;;
56567;SDS011;42456;49.956;20.004;2023-03-24T16:29:16;12.00;;;5.00;;
56567;SDS011;42456;49.956;20.004;2023-03-24T16:31:48;10.00;;;5.00;;
56567;SDS011;42456;49.956;20.004;2023-03-24T16:34:18;9.10;;;4.90;;
56567;SDS011;42456;49.956;20.004;2023-03-24T16:36:46;8.40;;;5.00;;
56567;SDS011;42456;49.956;20.004;2023-03-24T16:39:21;8.50;;;4.70;;
56567;SDS011;42456;49.956;20.004;2023-03-24T16:41:50;12.70;;;6.40;;
56567;SDS011;42456;49.956;20.004;2023-03-24T16:44:18;9.30;;;5.20;;
56567;SDS011;42456;49.956;20.004;2023-03-24T16:46:46;10.40;;;4.60;;
56567;SDS011;42456;49.956;20.004;2023-03-24T16:49:16;10.40;;;5.00;;
56567;SDS011;42456;49.956;20.004;2023-03-24T16:51:44;13.00;;;5.30;;
56567;SDS011;42456;49.956;20.004;2023-03-24T16:54:12;11.50;;;5.00;;
56567;SDS011;42456;49.956;20.004;2023-03-24T16:56:39;9.20;;;5.30;;
56567;SDS011;42456;49.956;20.004;2023-03-24T16:59:06;11.20;;;5.00;;
56567;SDS011;42456;49.956;20.004;2023-03-24T17:01:35;12.10;;;5.70;;
56567;SDS011;42456;49.956;20.004;2023-03-24T17:04:16;14.20;;;6.20;;
56567;SDS011;42456;49.956;20.004;2023-03-24T17:06:46;15.10;;;6.50;;
56567;SDS011;42456;49.956;20.004;2023-03-24T17:09:18;13.10;;;6.40;;
56567;SDS011;42456;49.956;20.004;2023-03-24T17:11:50;12.30;;;5.20;;
56567;SDS011;42456;49.956;20.004;2023-03-24T17:14:20;11.40;;;6.00;;
56567;SDS011;42456;49.956;20.004;2023-03-24T17:16:47;11.60;;;5.70;;
56567;SDS011;42456;49.956;20.004;2023-03-24T17:19:16;7.20;;;4.10;;
56567;SDS011;42456;49.956;20.004;2023-03-24T17:26:41;4.10;;;3.20;;
56567;SDS011;42456;49.956;20.004;2023-03-24T17:29:10;5.20;;;3.10;;
56567;SDS011;42456;49.956;20.004;2023-03-24T17:31:38;6.30;;;3.60;;
56567;SDS011;42456;49.956;20.004;2023-03-24T17:34:11;6.10;;;3.60;;
56567;SDS011;42456;49.956;20.004;2023-03-24T17:36:42;9.00;;;4.90;;
56567;SDS011;42456;49.956;20.004;2023-03-24T17:39:12;9.00;;;5.00;;
56567;SDS011;42456;49.956;20.004;2023-03-24T17:41:41;14.40;;;7.20;;
56567;SDS011;42456;49.956;20.004;2023-03-24T17:44:08;11.80;;;5.90;;
56567;SDS011;42456;49.956;20.004;2023-03-24T17:46:35;12.70;;;6.20;;
56567;SDS011;42456;49.956;20.004;2023-03-24T17:49:03;14.10;;;6.60;;
56567;SDS011;42456;49.956;20.004;2023-03-24T17:51:30;9.30;;;5.30;;
56567;SDS011;42456;49.956;20.004;2023-03-24T17:53:56;9.70;;;4.80;;
56567;SDS011;42456;49.956;20.004;2023-03-24T17:56:23;9.50;;;4.50;;
56567;SDS011;42456;49.956;20.004;2023-03-24T17:58:50;9.80;;;4.60;;
56567;SDS011;42456;49.956;20.004;2023-03-24T18:01:20;10.10;;;4.80;;
56567;SDS011;42456;49.956;20.004;2023-03-24T18:03:47;9.50;;;5.10;;
56567;SDS011;42456;49.956;20.004;2023-03-24T18:06:15;10.70;;;5.00;;
56567;SDS011;42456;49.956;20.004;2023-03-24T18:08:42;10.10;;;4.60;;
56567;SDS011;42456;49.956;20.004;2023-03-24T18:11:13;10.90;;;5.30;;
56567;SDS011;42456;49.956;20.004;2023-03-24T18:13:41;15.50;;;6.50;;
56567;SDS011;42456;49.956;20.004;2023-03-24T18:16:08;12.30;;;6.40;;
56567;SDS011;42456;49.956;20.004;2023-03-24T18:18:47;14.70;;;7.20;;
56567;SDS011;42456;49.956;20.004;2023-03-24T18:21:15;16.70;;;7.20;;
56567;SDS011;42456;49.956;20.004;2023-03-24T18:23:43;13.90;;;6.80;;